sensor_id;sensor_type;location;lat;lon;timestamp;temperature;humidity
75931;DHT22;64609;47.052;15.462;2024-01-30T00:01:51;3.90;55.80
75931;DHT22;64609;47.052;15.462;2024-01-30T00:04:17;3.80;55.60
75931;DHT22;64609;47.052;15.462;2024-01-30T00:06:43;3.70;55.70
75931;DHT22;64609;47.052;15.462;2024-01-30T00:09:09;3.60;55.80
75931;DHT22;64609;47.052;15.462;2024-01-30T00:11:36;3.50;56.10
75931;DHT22;64609;47.052;15.462;2024-01-30T00:14:02;3.50;56.30
75931;DHT22;64609;47.052;15.462;2024-01-30T00:16:28;3.50;56.40
75931;DHT22;64609;47.052;15.462;2024-01-30T00:18:54;3.50;56.40
75931;DHT22;64609;47.052;15.462;2024-01-30T00:21:21;3.60;56.20
75931;DHT22;64609;47.052;15.462;2024-01-30T00:23:46;3.60;56.10
75931;DHT22;64609;47.052;15.462;2024-01-30T00:26:12;3.60;56.10
75931;DHT22;64609;47.052;15.462;2024-01-30T00:28:40;3.50;56.00
75931;DHT22;64609;47.052;15.462;2024-01-30T00:31:06;3.40;56.10
75931;DHT22;64609;47.052;15.462;2024-01-30T00:33:31;3.50;56.40
75931;DHT22;64609;47.052;15.462;2024-01-30T00:35:57;3.50;56.30
75931;DHT22;64609;47.052;15.462;2024-01-30T00:38:23;3.50;56.30
75931;DHT22;64609;47.052;15.462;2024-01-30T00:40:48;3.60;56.20
75931;DHT22;64609;47.052;15.462;2024-01-30T00:43:15;3.50;56.10
75931;DHT22;64609;47.052;15.462;2024-01-30T00:45:41;3.50;56.30
75931;DHT22;64609;47.052;15.462;2024-01-30T00:48:07;3.50;56.40
75931;DHT22;64609;47.052;15.462;2024-01-30T00:50:32;3.50;56.30
75931;DHT22;64609;47.052;15.462;2024-01-30T00:52:58;3.60;56.50
75931;DHT22;64609;47.052;15.462;2024-01-30T00:55:23;3.60;56.40
75931;DHT22;64609;47.052;15.462;2024-01-30T00:57:49;3.60;56.50
75931;DHT22;64609;47.052;15.462;2024-01-30T01:00:15;3.60;56.70
75931;DHT22;64609;47.052;15.462;2024-01-30T01:02:44;3.50;57.00
75931;DHT22;64609;47.052;15.462;2024-01-30T01:05:10;3.50;57.00
75931;DHT22;64609;47.052;15.462;2024-01-30T01:07:36;3.40;57.00
75931;DHT22;64609;47.052;15.462;2024-01-30T01:10:02;3.40;57.30
75931;DHT22;64609;47.052;15.462;2024-01-30T01:12:28;3.40;57.40
75931;DHT22;64609;47.052;15.462;2024-01-30T01:14:53;3.40;57.40
75931;DHT22;64609;47.052;15.462;2024-01-30T01:17:19;3.40;57.30
75931;DHT22;64609;47.052;15.462;2024-01-30T01:19:45;3.40;57.40
75931;DHT22;64609;47.052;15.462;2024-01-30T01:22:11;3.40;57.40
75931;DHT22;64609;47.052;15.462;2024-01-30T01:24:36;3.40;57.20
75931;DHT22;64609;47.052;15.462;2024-01-30T01:27:02;3.40;57.10
75931;DHT22;64609;47.052;15.462;2024-01-30T01:29:28;3.40;57.10
75931;DHT22;64609;47.052;15.462;2024-01-30T01:31:55;3.40;57.10
75931;DHT22;64609;47.052;15.462;2024-01-30T01:34:21;3.30;56.90
75931;DHT22;64609;47.052;15.462;2024-01-30T01:36:47;3.20;56.80
75931;DHT22;64609;47.052;15.462;2024-01-30T01:39:13;3.10;56.70
75931;DHT22;64609;47.052;15.462;2024-01-30T01:41:39;3.10;56.80
75931;DHT22;64609;47.052;15.462;2024-01-30T01:44:04;3.00;56.90
75931;DHT22;64609;47.052;15.462;2024-01-30T01:46:33;3.00;56.80
75931;DHT22;64609;47.052;15.462;2024-01-30T01:49:00;3.00;56.90
75931;DHT22;64609;47.052;15.462;2024-01-30T01:51:28;3.00;57.20
75931;DHT22;64609;47.052;15.462;2024-01-30T01:53:55;2.90;57.20
75931;DHT22;64609;47.052;15.462;2024-01-30T01:56:23;2.90;57.40
75931;DHT22;64609;47.052;15.462;2024-01-30T01:58:49;3.00;57.60
75931;DHT22;64609;47.052;15.462;2024-01-30T02:01:18;3.00;57.50
75931;DHT22;64609;47.052;15.462;2024-01-30T02:03:44;2.80;57.50
75931;DHT22;64609;47.052;15.462;2024-01-30T02:06:11;2.80;57.70
75931;DHT22;64609;47.052;15.462;2024-01-30T02:08:37;2.80;57.70
75931;DHT22;64609;47.052;15.462;2024-01-30T02:11:03;2.80;58.60
75931;DHT22;64609;47.052;15.462;2024-01-30T02:13:29;2.90;57.60
75931;DHT22;64609;47.052;15.462;2024-01-30T02:15:55;2.80;57.50
75931;DHT22;64609;47.052;15.462;2024-01-30T02:18:21;2.80;57.40
75931;DHT22;64609;47.052;15.462;2024-01-30T02:20:47;2.80;57.50
75931;DHT22;64609;47.052;15.462;2024-01-30T02:23:15;2.80;57.20
75931;DHT22;64609;47.052;15.462;2024-01-30T02:25:41;2.80;57.20
75931;DHT22;64609;47.052;15.462;2024-01-30T02:28:11;2.80;57.20
75931;DHT22;64609;47.052;15.462;2024-01-30T02:30:42;2.80;57.40
75931;DHT22;64609;47.052;15.462;2024-01-30T02:33:08;2.80;57.50
75931;DHT22;64609;47.052;15.462;2024-01-30T02:35:33;2.70;57.30
75931;DHT22;64609;47.052;15.462;2024-01-30T02:37:59;2.70;57.30
75931;DHT22;64609;47.052;15.462;2024-01-30T02:40:25;2.80;57.20
75931;DHT22;64609;47.052;15.462;2024-01-30T02:42:51;2.70;57.20
75931;DHT22;64609;47.052;15.462;2024-01-30T02:45:17;2.70;57.20
75931;DHT22;64609;47.052;15.462;2024-01-30T02:47:42;2.70;57.30
75931;DHT22;64609;47.052;15.462;2024-01-30T02:50:08;2.70;57.40
75931;DHT22;64609;47.052;15.462;2024-01-30T02:52:34;2.70;57.40
75931;DHT22;64609;47.052;15.462;2024-01-30T02:55:00;2.70;57.30
75931;DHT22;64609;47.052;15.462;2024-01-30T02:57:26;2.70;57.20
75931;DHT22;64609;47.052;15.462;2024-01-30T02:59:51;2.70;57.30
75931;DHT22;64609;47.052;15.462;2024-01-30T03:02:17;2.70;57.20
75931;DHT22;64609;47.052;15.462;2024-01-30T03:04:43;2.70;57.40
75931;DHT22;64609;47.052;15.462;2024-01-30T03:07:09;2.60;57.40
75931;DHT22;64609;47.052;15.462;2024-01-30T03:09:36;2.70;57.30
75931;DHT22;64609;47.052;15.462;2024-01-30T03:12:01;2.70;57.40
75931;DHT22;64609;47.052;15.462;2024-01-30T03:14:28;2.60;57.70
75931;DHT22;64609;47.052;15.462;2024-01-30T03:16:54;2.70;57.80
75931;DHT22;64609;47.052;15.462;2024-01-30T03:19:19;2.70;57.70
75931;DHT22;64609;47.052;15.462;2024-01-30T03:21:45;2.70;57.60
75931;DHT22;64609;47.052;15.462;2024-01-30T03:24:10;2.60;57.60
75931;DHT22;64609;47.052;15.462;2024-01-30T03:26:36;2.60;57.80
75931;DHT22;64609;47.052;15.462;2024-01-30T03:29:02;2.60;57.90
75931;DHT22;64609;47.052;15.462;2024-01-30T03:31:27;2.60;57.90
75931;DHT22;64609;47.052;15.462;2024-01-30T03:33:53;2.60;57.80
75931;DHT22;64609;47.052;15.462;2024-01-30T03:36:19;2.60;57.80
75931;DHT22;64609;47.052;15.462;2024-01-30T03:38:45;2.60;57.90
75931;DHT22;64609;47.052;15.462;2024-01-30T03:41:10;2.60;57.90
75931;DHT22;64609;47.052;15.462;2024-01-30T03:43:36;2.60;57.80
75931;DHT22;64609;47.052;15.462;2024-01-30T03:46:02;2.60;57.80
75931;DHT22;64609;47.052;15.462;2024-01-30T03:48:29;2.50;57.80
75931;DHT22;64609;47.052;15.462;2024-01-30T03:50:54;2.50;57.70
75931;DHT22;64609;47.052;15.462;2024-01-30T03:53:20;2.50;57.60
75931;DHT22;64609;47.052;15.462;2024-01-30T03:55:46;2.40;57.30
75931;DHT22;64609;47.052;15.462;2024-01-30T03:58:12;2.30;57.30
75931;DHT22;64609;47.052;15.462;2024-01-30T04:00:37;2.30;57.50
75931;DHT22;64609;47.052;15.462;2024-01-30T04:03:03;2.30;57.40
75931;DHT22;64609;47.052;15.462;2024-01-30T04:05:29;2.30;57.30
75931;DHT22;64609;47.052;15.462;2024-01-30T04:07:54;2.30;57.30
75931;DHT22;64609;47.052;15.462;2024-01-30T04:10:20;2.30;57.40
75931;DHT22;64609;47.052;15.462;2024-01-30T04:12:46;2.30;57.40
75931;DHT22;64609;47.052;15.462;2024-01-30T04:15:11;2.30;57.40
75931;DHT22;64609;47.052;15.462;2024-01-30T04:17:39;2.30;57.40
75931;DHT22;64609;47.052;15.462;2024-01-30T04:20:05;2.30;58.30
75931;DHT22;64609;47.052;15.462;2024-01-30T04:22:31;2.30;57.20
75931;DHT22;64609;47.052;15.462;2024-01-30T04:24:57;2.30;57.20
75931;DHT22;64609;47.052;15.462;2024-01-30T04:27:23;2.30;57.50
75931;DHT22;64609;47.052;15.462;2024-01-30T04:29:48;2.40;58.50
75931;DHT22;64609;47.052;15.462;2024-01-30T04:32:14;2.30;57.60
75931;DHT22;64609;47.052;15.462;2024-01-30T04:34:40;2.30;57.50
75931;DHT22;64609;47.052;15.462;2024-01-30T04:37:05;2.30;57.60
75931;DHT22;64609;47.052;15.462;2024-01-30T04:39:33;2.30;57.80
75931;DHT22;64609;47.052;15.462;2024-01-30T04:41:58;2.30;57.80
75931;DHT22;64609;47.052;15.462;2024-01-30T04:44:24;2.30;57.80
75931;DHT22;64609;47.052;15.462;2024-01-30T04:46:50;2.30;57.90
75931;DHT22;64609;47.052;15.462;2024-01-30T04:49:16;2.30;57.80
75931;DHT22;64609;47.052;15.462;2024-01-30T04:51:41;2.20;57.80
75931;DHT22;64609;47.052;15.462;2024-01-30T04:54:08;2.20;57.80
75931;DHT22;64609;47.052;15.462;2024-01-30T04:56:33;2.20;57.80
75931;DHT22;64609;47.052;15.462;2024-01-30T04:59:02;2.20;57.70
75931;DHT22;64609;47.052;15.462;2024-01-30T05:01:28;2.20;57.70
75931;DHT22;64609;47.052;15.462;2024-01-30T05:03:53;2.20;58.00
75931;DHT22;64609;47.052;15.462;2024-01-30T05:06:26;2.20;57.80
75931;DHT22;64609;47.052;15.462;2024-01-30T05:08:51;2.20;57.80
75931;DHT22;64609;47.052;15.462;2024-01-30T05:11:17;2.20;57.90
75931;DHT22;64609;47.052;15.462;2024-01-30T05:13:42;2.20;57.80
75931;DHT22;64609;47.052;15.462;2024-01-30T05:16:08;2.10;57.50
75931;DHT22;64609;47.052;15.462;2024-01-30T05:18:34;2.10;57.60
75931;DHT22;64609;47.052;15.462;2024-01-30T05:20:59;2.10;58.50
75931;DHT22;64609;47.052;15.462;2024-01-30T05:23:25;2.10;57.40
75931;DHT22;64609;47.052;15.462;2024-01-30T05:25:50;2.10;57.50
75931;DHT22;64609;47.052;15.462;2024-01-30T05:28:16;2.10;57.50
75931;DHT22;64609;47.052;15.462;2024-01-30T05:30:42;2.10;57.50
75931;DHT22;64609;47.052;15.462;2024-01-30T05:33:08;2.10;57.50
75931;DHT22;64609;47.052;15.462;2024-01-30T05:35:33;2.10;57.60
75931;DHT22;64609;47.052;15.462;2024-01-30T05:37:59;2.00;57.50
75931;DHT22;64609;47.052;15.462;2024-01-30T05:40:24;2.00;57.60
75931;DHT22;64609;47.052;15.462;2024-01-30T05:42:50;2.00;57.60
75931;DHT22;64609;47.052;15.462;2024-01-30T05:45:16;2.00;57.60
75931;DHT22;64609;47.052;15.462;2024-01-30T05:47:41;2.00;57.40
75931;DHT22;64609;47.052;15.462;2024-01-30T05:50:07;2.00;57.50
75931;DHT22;64609;47.052;15.462;2024-01-30T05:52:33;2.00;57.50
75931;DHT22;64609;47.052;15.462;2024-01-30T05:54:58;2.00;57.60
75931;DHT22;64609;47.052;15.462;2024-01-30T05:57:24;2.00;57.60
75931;DHT22;64609;47.052;15.462;2024-01-30T05:59:49;2.00;57.80
75931;DHT22;64609;47.052;15.462;2024-01-30T06:02:17;2.00;57.70
75931;DHT22;64609;47.052;15.462;2024-01-30T06:04:42;2.00;57.90
75931;DHT22;64609;47.052;15.462;2024-01-30T06:07:10;2.00;58.00
75931;DHT22;64609;47.052;15.462;2024-01-30T06:09:35;2.00;58.10
75931;DHT22;64609;47.052;15.462;2024-01-30T06:12:01;2.00;58.00
75931;DHT22;64609;47.052;15.462;2024-01-30T06:14:26;1.90;57.90
75931;DHT22;64609;47.052;15.462;2024-01-30T06:16:52;1.80;57.80
75931;DHT22;64609;47.052;15.462;2024-01-30T06:19:18;1.80;57.90
75931;DHT22;64609;47.052;15.462;2024-01-30T06:21:44;1.80;57.70
75931;DHT22;64609;47.052;15.462;2024-01-30T06:24:10;1.90;57.60
75931;DHT22;64609;47.052;15.462;2024-01-30T06:26:36;1.90;57.60
75931;DHT22;64609;47.052;15.462;2024-01-30T06:29:01;1.90;57.50
75931;DHT22;64609;47.052;15.462;2024-01-30T06:31:27;1.90;57.60
75931;DHT22;64609;47.052;15.462;2024-01-30T06:33:53;1.90;57.70
75931;DHT22;64609;47.052;15.462;2024-01-30T06:36:18;1.90;57.90
75931;DHT22;64609;47.052;15.462;2024-01-30T06:38:44;1.90;57.90
75931;DHT22;64609;47.052;15.462;2024-01-30T06:41:10;1.80;57.60
75931;DHT22;64609;47.052;15.462;2024-01-30T06:43:35;1.80;57.80
75931;DHT22;64609;47.052;15.462;2024-01-30T06:46:01;1.80;57.60
75931;DHT22;64609;47.052;15.462;2024-01-30T06:48:26;1.80;57.60
75931;DHT22;64609;47.052;15.462;2024-01-30T06:50:56;1.90;57.60
75931;DHT22;64609;47.052;15.462;2024-01-30T06:53:22;1.90;57.40
75931;DHT22;64609;47.052;15.462;2024-01-30T06:55:48;1.90;57.40
75931;DHT22;64609;47.052;15.462;2024-01-30T06:58:14;1.90;57.50
75931;DHT22;64609;47.052;15.462;2024-01-30T07:00:39;1.90;57.80
75931;DHT22;64609;47.052;15.462;2024-01-30T07:03:05;1.90;57.80
75931;DHT22;64609;47.052;15.462;2024-01-30T07:05:31;2.00;57.70
75931;DHT22;64609;47.052;15.462;2024-01-30T07:07:57;2.00;57.60
75931;DHT22;64609;47.052;15.462;2024-01-30T07:10:23;2.00;57.80
75931;DHT22;64609;47.052;15.462;2024-01-30T07:12:48;2.10;57.80
75931;DHT22;64609;47.052;15.462;2024-01-30T07:15:14;2.20;57.90
75931;DHT22;64609;47.052;15.462;2024-01-30T07:17:42;2.20;57.60
75931;DHT22;64609;47.052;15.462;2024-01-30T07:20:08;2.20;57.60
75931;DHT22;64609;47.052;15.462;2024-01-30T07:22:34;2.30;58.20
75931;DHT22;64609;47.052;15.462;2024-01-30T07:25:00;2.30;58.30
75931;DHT22;64609;47.052;15.462;2024-01-30T07:27:26;2.40;58.40
75931;DHT22;64609;47.052;15.462;2024-01-30T07:29:51;2.50;58.40
75931;DHT22;64609;47.052;15.462;2024-01-30T07:32:17;2.60;58.70
75931;DHT22;64609;47.052;15.462;2024-01-30T07:34:44;2.60;58.50
75931;DHT22;64609;47.052;15.462;2024-01-30T07:37:09;2.70;58.70
75931;DHT22;64609;47.052;15.462;2024-01-30T07:39:36;2.70;58.80
75931;DHT22;64609;47.052;15.462;2024-01-30T07:42:02;2.80;58.80
75931;DHT22;64609;47.052;15.462;2024-01-30T07:44:28;2.90;58.80
75931;DHT22;64609;47.052;15.462;2024-01-30T07:46:54;3.00;58.70
75931;DHT22;64609;47.052;15.462;2024-01-30T07:49:20;3.10;58.70
75931;DHT22;64609;47.052;15.462;2024-01-30T07:51:45;3.20;59.60
75931;DHT22;64609;47.052;15.462;2024-01-30T07:54:14;3.20;58.60
75931;DHT22;64609;47.052;15.462;2024-01-30T07:56:40;3.30;58.40
75931;DHT22;64609;47.052;15.462;2024-01-30T07:59:10;3.40;58.40
75931;DHT22;64609;47.052;15.462;2024-01-30T08:01:36;3.60;58.40
75931;DHT22;64609;47.052;15.462;2024-01-30T08:04:02;3.70;58.40
75931;DHT22;64609;47.052;15.462;2024-01-30T08:06:28;3.90;57.90
75931;DHT22;64609;47.052;15.462;2024-01-30T08:08:53;4.20;57.80
75931;DHT22;64609;47.052;15.462;2024-01-30T08:11:22;4.30;57.40
75931;DHT22;64609;47.052;15.462;2024-01-30T08:13:55;4.60;57.00
75931;DHT22;64609;47.052;15.462;2024-01-30T08:16:20;5.20;56.60
75931;DHT22;64609;47.052;15.462;2024-01-30T08:18:46;6.50;56.00
75931;DHT22;64609;47.052;15.462;2024-01-30T08:21:12;8.80;50.90
75931;DHT22;64609;47.052;15.462;2024-01-30T08:23:42;11.40;45.20
75931;DHT22;64609;47.052;15.462;2024-01-30T08:26:08;13.80;40.30
75931;DHT22;64609;47.052;15.462;2024-01-30T08:28:34;15.70;36.30
75931;DHT22;64609;47.052;15.462;2024-01-30T08:30:59;17.10;33.50
75931;DHT22;64609;47.052;15.462;2024-01-30T08:33:25;18.30;31.70
75931;DHT22;64609;47.052;15.462;2024-01-30T08:35:50;19.30;30.10
75931;DHT22;64609;47.052;15.462;2024-01-30T08:38:16;20.20;29.20
75931;DHT22;64609;47.052;15.462;2024-01-30T08:40:41;20.80;27.50
75931;DHT22;64609;47.052;15.462;2024-01-30T08:43:07;21.40;27.00
75931;DHT22;64609;47.052;15.462;2024-01-30T08:45:35;21.80;26.50
75931;DHT22;64609;47.052;15.462;2024-01-30T08:48:01;22.30;26.40
75931;DHT22;64609;47.052;15.462;2024-01-30T08:50:26;22.80;25.20
75931;DHT22;64609;47.052;15.462;2024-01-30T08:52:52;23.20;24.80
75931;DHT22;64609;47.052;15.462;2024-01-30T08:55:18;23.60;24.20
75931;DHT22;64609;47.052;15.462;2024-01-30T08:57:43;23.70;23.80
75931;DHT22;64609;47.052;15.462;2024-01-30T09:00:09;23.90;23.70
75931;DHT22;64609;47.052;15.462;2024-01-30T09:02:35;24.20;23.20
75931;DHT22;64609;47.052;15.462;2024-01-30T09:05:01;24.30;23.00
75931;DHT22;64609;47.052;15.462;2024-01-30T09:07:27;24.20;22.90
75931;DHT22;64609;47.052;15.462;2024-01-30T09:09:52;24.20;22.90
75931;DHT22;64609;47.052;15.462;2024-01-30T09:12:18;24.00;22.90
75931;DHT22;64609;47.052;15.462;2024-01-30T09:14:44;23.90;23.00
75931;DHT22;64609;47.052;15.462;2024-01-30T09:17:09;24.00;23.00
75931;DHT22;64609;47.052;15.462;2024-01-30T09:19:35;23.80;23.00
75931;DHT22;64609;47.052;15.462;2024-01-30T09:22:01;23.80;22.80
75931;DHT22;64609;47.052;15.462;2024-01-30T09:24:27;23.90;22.90
75931;DHT22;64609;47.052;15.462;2024-01-30T09:26:53;24.00;22.70
75931;DHT22;64609;47.052;15.462;2024-01-30T09:29:18;23.90;22.60
75931;DHT22;64609;47.052;15.462;2024-01-30T09:31:45;23.80;22.20
75931;DHT22;64609;47.052;15.462;2024-01-30T09:34:11;23.60;22.40
75931;DHT22;64609;47.052;15.462;2024-01-30T09:36:37;23.50;22.50
75931;DHT22;64609;47.052;15.462;2024-01-30T09:39:03;23.10;22.70
75931;DHT22;64609;47.052;15.462;2024-01-30T09:41:32;22.30;23.40
75931;DHT22;64609;47.052;15.462;2024-01-30T09:43:59;20.90;24.80
75931;DHT22;64609;47.052;15.462;2024-01-30T09:46:27;19.50;25.80
75931;DHT22;64609;47.052;15.462;2024-01-30T09:48:55;18.20;27.20
75931;DHT22;64609;47.052;15.462;2024-01-30T09:51:22;17.20;28.40
75931;DHT22;64609;47.052;15.462;2024-01-30T09:53:48;16.50;29.10
75931;DHT22;64609;47.052;15.462;2024-01-30T09:56:14;16.00;29.70
75931;DHT22;64609;47.052;15.462;2024-01-30T09:58:40;15.60;30.60
75931;DHT22;64609;47.052;15.462;2024-01-30T10:01:07;15.20;31.10
75931;DHT22;64609;47.052;15.462;2024-01-30T10:03:33;15.00;31.60
75931;DHT22;64609;47.052;15.462;2024-01-30T10:05:59;14.80;32.30
75931;DHT22;64609;47.052;15.462;2024-01-30T10:08:26;14.60;32.40
75931;DHT22;64609;47.052;15.462;2024-01-30T10:10:52;14.40;32.80
75931;DHT22;64609;47.052;15.462;2024-01-30T10:13:18;14.30;33.30
75931;DHT22;64609;47.052;15.462;2024-01-30T10:15:44;14.20;33.50
75931;DHT22;64609;47.052;15.462;2024-01-30T10:18:10;14.30;33.70
75931;DHT22;64609;47.052;15.462;2024-01-30T10:20:37;14.20;33.60
75931;DHT22;64609;47.052;15.462;2024-01-30T10:23:04;14.30;33.50
75931;DHT22;64609;47.052;15.462;2024-01-30T10:25:31;14.10;33.50
75931;DHT22;64609;47.052;15.462;2024-01-30T10:27:57;13.90;34.00
75931;DHT22;64609;47.052;15.462;2024-01-30T10:30:23;13.90;34.30
75931;DHT22;64609;47.052;15.462;2024-01-30T10:32:50;13.90;34.50
75931;DHT22;64609;47.052;15.462;2024-01-30T10:35:16;13.90;34.50
75931;DHT22;64609;47.052;15.462;2024-01-30T10:37:44;13.80;34.80
75931;DHT22;64609;47.052;15.462;2024-01-30T10:40:14;13.80;35.00
75931;DHT22;64609;47.052;15.462;2024-01-30T10:42:45;13.60;35.10
75931;DHT22;64609;47.052;15.462;2024-01-30T10:45:14;13.60;35.70
75931;DHT22;64609;47.052;15.462;2024-01-30T10:47:52;13.80;35.40
75931;DHT22;64609;47.052;15.462;2024-01-30T10:50:18;13.80;35.40
75931;DHT22;64609;47.052;15.462;2024-01-30T10:52:45;13.80;35.30
75931;DHT22;64609;47.052;15.462;2024-01-30T10:55:10;13.90;35.20
75931;DHT22;64609;47.052;15.462;2024-01-30T10:57:37;13.90;35.00
75931;DHT22;64609;47.052;15.462;2024-01-30T11:00:05;14.00;34.80
75931;DHT22;64609;47.052;15.462;2024-01-30T11:02:37;13.90;34.70
75931;DHT22;64609;47.052;15.462;2024-01-30T11:05:04;14.10;35.00
75931;DHT22;64609;47.052;15.462;2024-01-30T11:07:30;14.10;34.70
75931;DHT22;64609;47.052;15.462;2024-01-30T11:10:03;14.10;34.60
75931;DHT22;64609;47.052;15.462;2024-01-30T11:12:31;14.10;34.70
75931;DHT22;64609;47.052;15.462;2024-01-30T11:15:16;14.20;34.80
75931;DHT22;64609;47.052;15.462;2024-01-30T11:20:25;14.20;34.70
75931;DHT22;64609;47.052;15.462;2024-01-30T11:22:52;14.10;34.80
75931;DHT22;64609;47.052;15.462;2024-01-30T11:25:20;14.00;34.90
75931;DHT22;64609;47.052;15.462;2024-01-30T11:27:46;14.00;34.90
75931;DHT22;64609;47.052;15.462;2024-01-30T11:30:25;14.20;34.80
75931;DHT22;64609;47.052;15.462;2024-01-30T11:35:41;14.00;35.20
75931;DHT22;64609;47.052;15.462;2024-01-30T11:38:09;14.10;35.10
75931;DHT22;64609;47.052;15.462;2024-01-30T11:40:37;14.10;34.90
75931;DHT22;64609;47.052;15.462;2024-01-30T11:43:04;14.00;35.40
75931;DHT22;64609;47.052;15.462;2024-01-30T11:45:32;14.10;35.50
75931;DHT22;64609;47.052;15.462;2024-01-30T11:47:58;14.30;35.00
75931;DHT22;64609;47.052;15.462;2024-01-30T11:50:25;14.30;35.00
75931;DHT22;64609;47.052;15.462;2024-01-30T11:52:51;14.30;34.80
75931;DHT22;64609;47.052;15.462;2024-01-30T11:55:17;14.10;35.10
75931;DHT22;64609;47.052;15.462;2024-01-30T11:57:43;14.00;35.30
75931;DHT22;64609;47.052;15.462;2024-01-30T12:00:16;14.00;35.40
75931;DHT22;64609;47.052;15.462;2024-01-30T12:02:42;14.10;35.20
75931;DHT22;64609;47.052;15.462;2024-01-30T12:05:09;14.10;35.10
75931;DHT22;64609;47.052;15.462;2024-01-30T12:07:35;14.10;35.10
75931;DHT22;64609;47.052;15.462;2024-01-30T12:10:01;14.10;35.20
75931;DHT22;64609;47.052;15.462;2024-01-30T12:12:28;14.10;35.10
75931;DHT22;64609;47.052;15.462;2024-01-30T12:14:55;14.00;35.10
75931;DHT22;64609;47.052;15.462;2024-01-30T12:17:32;13.90;35.40
75931;DHT22;64609;47.052;15.462;2024-01-30T12:20:08;13.90;35.30
75931;DHT22;64609;47.052;15.462;2024-01-30T12:22:45;13.80;35.30
75931;DHT22;64609;47.052;15.462;2024-01-30T12:25:13;13.70;35.50
75931;DHT22;64609;47.052;15.462;2024-01-30T12:27:41;13.70;35.70
75931;DHT22;64609;47.052;15.462;2024-01-30T12:30:18;13.70;35.70
75931;DHT22;64609;47.052;15.462;2024-01-30T12:32:45;13.60;35.90
75931;DHT22;64609;47.052;15.462;2024-01-30T12:35:17;13.50;35.80
75931;DHT22;64609;47.052;15.462;2024-01-30T12:37:46;13.50;36.30
75931;DHT22;64609;47.052;15.462;2024-01-30T12:40:14;13.50;36.30
75931;DHT22;64609;47.052;15.462;2024-01-30T12:42:41;13.40;36.10
75931;DHT22;64609;47.052;15.462;2024-01-30T12:45:08;13.40;36.30
75931;DHT22;64609;47.052;15.462;2024-01-30T12:47:35;13.30;36.30
75931;DHT22;64609;47.052;15.462;2024-01-30T12:50:00;13.20;36.20
75931;DHT22;64609;47.052;15.462;2024-01-30T12:52:26;13.10;36.50
75931;DHT22;64609;47.052;15.462;2024-01-30T12:54:52;12.90;36.80
75931;DHT22;64609;47.052;15.462;2024-01-30T12:57:18;12.80;37.20
75931;DHT22;64609;47.052;15.462;2024-01-30T12:59:44;12.70;37.60
75931;DHT22;64609;47.052;15.462;2024-01-30T13:02:11;12.70;37.70
75931;DHT22;64609;47.052;15.462;2024-01-30T13:04:37;12.60;37.80
75931;DHT22;64609;47.052;15.462;2024-01-30T13:07:03;12.60;37.80
75931;DHT22;64609;47.052;15.462;2024-01-30T13:09:30;12.70;37.90
75931;DHT22;64609;47.052;15.462;2024-01-30T13:11:56;12.80;38.10
75931;DHT22;64609;47.052;15.462;2024-01-30T13:14:21;12.70;38.20
75931;DHT22;64609;47.052;15.462;2024-01-30T13:16:47;12.70;38.50
75931;DHT22;64609;47.052;15.462;2024-01-30T13:19:13;12.60;38.50
75931;DHT22;64609;47.052;15.462;2024-01-30T13:21:38;12.70;38.70
75931;DHT22;64609;47.052;15.462;2024-01-30T13:24:04;12.60;38.80
75931;DHT22;64609;47.052;15.462;2024-01-30T13:26:32;12.70;39.00
75931;DHT22;64609;47.052;15.462;2024-01-30T13:28:58;12.60;38.90
75931;DHT22;64609;47.052;15.462;2024-01-30T13:31:23;12.40;39.00
75931;DHT22;64609;47.052;15.462;2024-01-30T13:33:49;12.40;39.50
75931;DHT22;64609;47.052;15.462;2024-01-30T13:36:15;12.40;39.40
75931;DHT22;64609;47.052;15.462;2024-01-30T13:38:40;12.50;39.50
75931;DHT22;64609;47.052;15.462;2024-01-30T13:41:06;12.30;39.60
75931;DHT22;64609;47.052;15.462;2024-01-30T13:43:32;12.30;39.60
75931;DHT22;64609;47.052;15.462;2024-01-30T13:45:58;12.30;39.70
75931;DHT22;64609;47.052;15.462;2024-01-30T13:48:24;12.30;39.70
75931;DHT22;64609;47.052;15.462;2024-01-30T13:50:49;12.30;39.60
75931;DHT22;64609;47.052;15.462;2024-01-30T13:53:15;12.20;39.70
75931;DHT22;64609;47.052;15.462;2024-01-30T13:55:41;12.20;39.70
75931;DHT22;64609;47.052;15.462;2024-01-30T13:58:06;12.20;39.70
75931;DHT22;64609;47.052;15.462;2024-01-30T14:00:33;12.30;39.80
75931;DHT22;64609;47.052;15.462;2024-01-30T14:02:59;12.20;39.70
75931;DHT22;64609;47.052;15.462;2024-01-30T14:05:25;12.10;39.80
75931;DHT22;64609;47.052;15.462;2024-01-30T14:07:52;12.10;39.90
75931;DHT22;64609;47.052;15.462;2024-01-30T14:10:18;12.10;40.10
75931;DHT22;64609;47.052;15.462;2024-01-30T14:12:44;12.20;40.00
75931;DHT22;64609;47.052;15.462;2024-01-30T14:15:10;12.10;40.00
75931;DHT22;64609;47.052;15.462;2024-01-30T14:17:36;12.10;40.10
75931;DHT22;64609;47.052;15.462;2024-01-30T14:20:05;12.00;40.10
75931;DHT22;64609;47.052;15.462;2024-01-30T14:22:33;12.00;40.20
75931;DHT22;64609;47.052;15.462;2024-01-30T14:24:59;12.00;40.10
75931;DHT22;64609;47.052;15.462;2024-01-30T14:27:24;11.90;40.00
75931;DHT22;64609;47.052;15.462;2024-01-30T14:29:50;11.80;40.30
75931;DHT22;64609;47.052;15.462;2024-01-30T14:32:16;11.80;40.20
75931;DHT22;64609;47.052;15.462;2024-01-30T14:34:41;11.80;40.20
75931;DHT22;64609;47.052;15.462;2024-01-30T14:37:07;11.80;40.00
75931;DHT22;64609;47.052;15.462;2024-01-30T14:39:33;11.70;40.00
75931;DHT22;64609;47.052;15.462;2024-01-30T14:41:59;11.60;39.90
75931;DHT22;64609;47.052;15.462;2024-01-30T14:44:25;11.60;39.90
75931;DHT22;64609;47.052;15.462;2024-01-30T14:46:50;11.60;40.00
75931;DHT22;64609;47.052;15.462;2024-01-30T14:49:16;11.50;40.00
75931;DHT22;64609;47.052;15.462;2024-01-30T14:51:42;11.50;40.30
75931;DHT22;64609;47.052;15.462;2024-01-30T14:54:08;11.50;40.30
75931;DHT22;64609;47.052;15.462;2024-01-30T14:56:33;11.50;40.40
75931;DHT22;64609;47.052;15.462;2024-01-30T14:59:00;11.40;40.50
75931;DHT22;64609;47.052;15.462;2024-01-30T15:01:26;11.40;40.70
75931;DHT22;64609;47.052;15.462;2024-01-30T15:03:51;11.40;40.70
75931;DHT22;64609;47.052;15.462;2024-01-30T15:06:17;11.40;40.80
75931;DHT22;64609;47.052;15.462;2024-01-30T15:08:43;11.40;40.90
75931;DHT22;64609;47.052;15.462;2024-01-30T15:11:09;11.40;40.90
75931;DHT22;64609;47.052;15.462;2024-01-30T15:13:35;11.20;41.00
75931;DHT22;64609;47.052;15.462;2024-01-30T15:16:02;11.10;41.20
75931;DHT22;64609;47.052;15.462;2024-01-30T15:18:30;11.10;41.30
75931;DHT22;64609;47.052;15.462;2024-01-30T15:20:56;11.00;41.30
75931;DHT22;64609;47.052;15.462;2024-01-30T15:23:21;11.00;41.50
75931;DHT22;64609;47.052;15.462;2024-01-30T15:25:47;10.90;41.60